Time;durP1;ratioP1;P1;durP2;ratioP2;P2;SDS_P1;SDS_P2;PMS_P1;PMS_P2;Temp;Humidity;BMP_temperature;BMP_pressure;BME280_temperature;BME280_humidity;BME280_pressure;Samples;Min_cycle;Max_cycle;Signal;HPM_P1;HPM_P2
2022/07/09 00:00:13;;;;;;;13.18;6.38;;;17.20;99.90;;;;;;5072017;28;20410;-63
2022/07/09 00:02:40;;;;;;;14.30;6.65;;;17.20;99.90;;;;;;5071638;28;20131;-62
2022/07/09 00:05:07;;;;;;;12.30;6.70;;;17.20;99.90;;;;;;5071341;28;20105;-62
2022/07/09 00:07:33;;;;;;;11.50;7.13;;;17.10;99.90;;;;;;5071895;28;20032;-62
2022/07/09 00:10:01;;;;;;;13.02;6.60;;;17.20;99.90;;;;;;5074551;28;20132;-63
2022/07/09 00:12:27;;;;;;;10.15;6.15;;;17.10;99.90;;;;;;5075436;28;20033;-62
2022/07/09 00:14:53;;;;;;;11.18;5.70;;;17.10;99.90;;;;;;5075528;28;20044;-62
2022/07/09 00:17:18;;;;;;;9.93;6.00;;;17.10;99.90;;;;;;5075513;28;20037;-63
2022/07/09 00:19:44;;;;;;;10.93;6.20;;;17.20;99.90;;;;;;5075479;28;20036;-63
2022/07/09 00:22:10;;;;;;;10.07;6.88;;;17.00;99.90;;;;;;5075583;28;20043;-63
2022/07/09 00:24:37;;;;;;;12.88;6.70;;;17.10;99.90;;;;;;5075521;28;20127;-63
2022/07/09 00:27:03;;;;;;;12.73;7.57;;;17.20;99.90;;;;;;5075396;28;20037;-62
2022/07/09 00:29:29;;;;;;;12.90;7.25;;;17.10;99.90;;;;;;5075211;28;20044;-64
2022/07/09 00:31:55;;;;;;;11.82;7.43;;;17.10;99.90;;;;;;5074964;28;20109;-62
2022/07/09 00:34:21;;;;;;;12.00;7.10;;;17.20;99.90;;;;;;5075030;28;20041;-62
2022/07/09 00:36:48;;;;;;;16.33;8.00;;;17.10;99.90;;;;;;5073882;28;20550;-62
2022/07/09 00:39:14;;;;;;;14.02;6.60;;;17.10;99.90;;;;;;5072722;28;20075;-62
2022/07/09 00:41:41;;;;;;;15.25;6.88;;;17.10;99.90;;;;;;5074884;28;20494;-63
2022/07/09 00:44:09;;;;;;;20.77;7.97;;;17.20;99.90;;;;;;5074787;28;20123;-63
2022/07/09 00:46:37;;;;;;;16.48;6.93;;;17.20;99.90;;;;;;5074948;28;20051;-62
2022/07/09 00:49:06;;;;;;;14.68;7.15;;;17.10;99.90;;;;;;5075354;28;20045;-63
2022/07/09 00:51:33;;;;;;;10.63;6.35;;;17.20;99.90;;;;;;5074872;28;20048;-63
2022/07/09 00:54:01;;;;;;;12.23;7.30;;;17.10;99.90;;;;;;5074999;28;20181;-63
2022/07/09 00:56:30;;;;;;;14.48;7.22;;;17.10;99.90;;;;;;5074851;28;20271;-63
2022/07/09 00:58:58;;;;;;;14.32;6.93;;;17.20;99.90;;;;;;5074634;28;20037;-63
2022/07/09 01:01:24;;;;;;;13.57;7.57;;;17.10;99.90;;;;;;5074622;28;20052;-63
2022/07/09 01:03:50;;;;;;;14.30;7.25;;;17.20;99.90;;;;;;5074726;28;20471;-62
2022/07/09 01:06:16;;;;;;;17.58;7.50;;;17.10;99.90;;;;;;5074382;28;20052;-62
2022/07/09 01:08:42;;;;;;;10.10;6.88;;;17.10;99.90;;;;;;5073071;28;20503;-62
2022/07/09 01:11:08;;;;;;;15.65;7.75;;;17.00;99.90;;;;;;5074246;28;20078;-62
2022/07/09 01:13:34;;;;;;;13.75;7.53;;;17.20;99.90;;;;;;5074448;28;20033;-63
2022/07/09 01:16:00;;;;;;;17.48;8.05;;;17.10;99.90;;;;;;5074277;28;20048;-62
2022/07/09 01:18:35;;;;;;;8.90;6.65;;;17.10;99.90;;;;;;5072250;28;20040;-62
2022/07/09 01:21:01;;;;;;;17.17;6.78;;;17.10;99.90;;;;;;5074484;28;20086;-63
2022/07/09 01:23:29;;;;;;;16.27;7.68;;;17.20;99.90;;;;;;5074326;28;20041;-62
2022/07/09 01:25:55;;;;;;;15.02;7.28;;;17.00;99.90;;;;;;5074199;28;20037;-64
2022/07/09 01:28:22;;;;;;;13.93;7.43;;;17.00;99.90;;;;;;5074164;28;20036;-62
2022/07/09 01:30:48;;;;;;;16.75;6.75;;;17.10;99.90;;;;;;5073996;28;20076;-62
2022/07/09 01:33:14;;;;;;;24.98;7.80;;;17.10;99.90;;;;;;5074192;28;20071;-63
2022/07/09 01:35:40;;;;;;;16.23;7.45;;;17.00;99.90;;;;;;5074131;28;20086;-62
2022/07/09 01:38:06;;;;;;;13.98;7.45;;;17.10;99.90;;;;;;5074003;28;20036;-62
2022/07/09 01:40:33;;;;;;;19.15;6.93;;;17.10;99.90;;;;;;5072867;28;20136;-63
2022/07/09 01:43:00;;;;;;;17.23;7.78;;;17.00;99.90;;;;;;5073871;28;20032;-63
2022/07/09 01:45:25;;;;;;;20.73;8.25;;;17.00;99.90;;;;;;5072339;28;20061;-63
2022/07/09 01:47:51;;;;;;;11.95;7.10;;;17.00;99.90;;;;;;5073890;28;20142;-63
2022/07/09 01:50:18;;;;;;;20.23;7.82;;;17.00;99.90;;;;;;5073598;28;20029;-63
2022/07/09 01:52:44;;;;;;;17.95;7.25;;;17.00;99.90;;;;;;5073591;28;20044;-63
2022/07/09 01:55:09;;;;;;;17.65;6.80;;;17.10;99.90;;;;;;5073584;28;20090;-63
2022/07/09 01:57:36;;;;;;;10.18;6.50;;;17.00;99.90;;;;;;5073631;28;20441;-63
2022/07/09 02:00:18;;;;;;;17.67;7.82;;;17.10;99.90;;;;;;5073538;28;20052;-63
2022/07/09 02:02:45;;;;;;;15.77;6.93;;;17.00;99.90;;;;;;5073707;28;20400;-63
2022/07/09 02:05:11;;;;;;;16.55;7.43;;;17.00;99.90;;;;;;5073831;28;20044;-63
2022/07/09 02:07:37;;;;;;;12.68;7.10;;;16.90;99.90;;;;;;5073459;28;20044;-64
2022/07/09 02:10:04;;;;;;;15.88;6.82;;;16.90;99.90;;;;;;5073401;28;20528;-64
2022/07/09 02:12:30;;;;;;;16.88;6.82;;;16.80;99.90;;;;;;5073176;28;20475;-63
2022/07/09 02:14:57;;;;;;;25.75;8.18;;;17.00;99.90;;;;;;5072290;28;20045;-63
2022/07/09 02:17:23;;;;;;;17.10;8.10;;;16.80;99.90;;;;;;5073105;28;20036;-63
2022/07/09 02:19:51;;;;;;;14.02;7.00;;;16.90;99.90;;;;;;5073051;28;20032;-63
2022/07/09 02:22:18;;;;;;;14.43;7.60;;;16.80;99.90;;;;;;5072910;28;20049;-63
2022/07/09 02:24:44;;;;;;;16.63;7.18;;;16.80;99.90;;;;;;5072903;28;20033;-63
2022/07/09 02:27:11;;;;;;;16.33;7.10;;;16.90;99.90;;;;;;5073041;28;20125;-63
2022/07/09 02:29:38;;;;;;;14.38;6.32;;;16.90;99.90;;;;;;5072898;28;20398;-63
2022/07/09 02:32:05;;;;;;;16.20;7.05;;;16.90;99.90;;;;;;5072502;28;20032;-64
2022/07/09 02:34:32;;;;;;;13.80;6.43;;;16.80;99.90;;;;;;5072779;28;20045;-63
2022/07/09 02:37:01;;;;;;;13.48;6.43;;;16.70;99.90;;;;;;5072911;28;20048;-63
2022/07/09 02:39:29;;;;;;;9.68;5.60;;;16.90;99.90;;;;;;5072721;28;20052;-64
2022/07/09 02:41:56;;;;;;;12.03;6.40;;;16.80;99.90;;;;;;5073263;28;20608;-63
2022/07/09 02:44:22;;;;;;;13.85;5.85;;;16.80;99.90;;;;;;5072824;28;20382;-62
2022/07/09 02:46:47;;;;;;;13.02;5.70;;;16.70;99.90;;;;;;5072669;28;20036;-63
2022/07/09 02:49:14;;;;;;;15.40;5.90;;;16.70;99.90;;;;;;5072705;28;20040;-62
2022/07/09 02:51:40;;;;;;;12.82;6.15;;;16.80;99.90;;;;;;5072529;28;20044;-62
2022/07/09 02:54:07;;;;;;;14.13;5.63;;;16.80;99.90;;;;;;5072427;28;20036;-62
2022/07/09 02:56:34;;;;;;;13.77;6.50;;;16.80;99.90;;;;;;5072365;28;20037;-62
2022/07/09 02:59:02;;;;;;;12.55;5.30;;;16.80;99.90;;;;;;5072448;28;20048;-63
2022/07/09 03:05:03;;;;;;;12.77;4.85;;;16.70;99.90;;;;;;5072641;28;20446;-63
2022/07/09 03:07:33;;;;;;;8.60;4.40;;;16.60;99.90;;;;;;5072233;28;20449;-63
2022/07/09 03:10:00;;;;;;;13.88;5.15;;;16.70;99.90;;;;;;5072178;28;20041;-62
2022/07/09 03:12:27;;;;;;;13.27;4.63;;;16.70;99.90;;;;;;5072050;28;20500;-63
2022/07/09 03:14:53;;;;;;;9.25;4.90;;;16.60;99.90;;;;;;5071974;28;20125;-64
2022/07/09 03:17:20;;;;;;;13.75;5.57;;;16.60;99.90;;;;;;5072051;28;20491;-63
2022/07/09 03:19:48;;;;;;;10.52;5.30;;;16.60;99.90;;;;;;5072163;28;20043;-63
2022/07/09 03:22:14;;;;;;;9.15;4.28;;;16.60;99.90;;;;;;5071969;28;20040;-63
2022/07/09 03:24:42;;;;;;;13.23;5.63;;;16.60;99.90;;;;;;5071973;28;20036;-63
2022/07/09 03:27:09;;;;;;;10.38;4.30;;;16.70;99.90;;;;;;5071944;28;20032;-63
2022/07/09 03:29:36;;;;;;;11.05;4.90;;;16.50;99.90;;;;;;5071755;28;20036;-63
2022/07/09 03:32:03;;;;;;;7.95;4.68;;;16.50;99.90;;;;;;5071921;28;20037;-63
2022/07/09 03:34:31;;;;;;;11.15;4.85;;;16.60;99.90;;;;;;5071986;28;20036;-63
2022/07/09 03:36:57;;;;;;;11.77;4.85;;;16.50;99.90;;;;;;5071789;28;20079;-63
2022/07/09 03:39:25;;;;;;;11.23;4.72;;;16.50;99.90;;;;;;5071356;28;20059;-63
2022/07/09 03:41:52;;;;;;;14.15;4.93;;;16.50;99.90;;;;;;5071532;28;20094;-63
2022/07/09 03:44:20;;;;;;;12.50;5.23;;;16.50;99.90;;;;;;5070928;28;20124;-63
2022/07/09 03:46:47;;;;;;;14.57;4.97;;;16.60;99.90;;;;;;5072081;28;20360;-63
2022/07/09 03:49:14;;;;;;;8.50;5.03;;;16.40;99.90;;;;;;5071892;28;20033;-63
2022/07/09 03:51:42;;;;;;;9.73;5.15;;;16.60;99.90;;;;;;5071566;28;20039;-63
2022/07/09 03:54:09;;;;;;;12.45;5.15;;;16.40;99.90;;;;;;5071699;28;20045;-62
2022/07/09 03:56:37;;;;;;;13.63;5.55;;;16.40;99.90;;;;;;5071414;28;20044;-62
2022/07/09 03:59:03;;;;;;;10.63;5.22;;;16.50;99.90;;;;;;5071406;28;20040;-62
2022/07/09 04:01:30;;;;;;;10.85;4.75;;;16.60;99.90;;;;;;5071687;28;20097;-63
2022/07/09 04:03:58;;;;;;;12.18;5.60;;;16.60;99.90;;;;;;5071468;28;20127;-63
2022/07/09 04:06:26;;;;;;;16.67;6.05;;;16.50;99.90;;;;;;5071559;28;20225;-63
2022/07/09 04:08:53;;;;;;;11.98;5.50;;;16.70;99.90;;;;;;5071411;28;20071;-63
2022/07/09 04:11:20;;;;;;;13.43;5.03;;;16.60;99.90;;;;;;5071412;28;20471;-63
2022/07/09 04:13:47;;;;;;;11.20;5.70;;;16.60;99.90;;;;;;5071325;28;20392;-63
2022/07/09 04:16:13;;;;;;;12.80;7.00;;;16.60;99.90;;;;;;5071458;28;20036;-63
2022/07/09 04:18:43;;;;;;;14.07;5.50;;;16.50;99.90;;;;;;5071518;28;20046;-63
2022/07/09 04:21:11;;;;;;;7.93;5.03;;;16.70;99.90;;;;;;5071147;28;20372;-63
2022/07/09 04:23:38;;;;;;;9.73;6.07;;;16.70;99.90;;;;;;5069817;28;20029;-63
2022/07/09 04:26:04;;;;;;;8.27;5.22;;;16.70;99.90;;;;;;5070031;28;20075;-61
2022/07/09 04:28:35;;;;;;;11.85;4.97;;;16.70;99.90;;;;;;5071444;28;20040;-63
2022/07/09 04:31:01;;;;;;;12.27;5.53;;;16.60;99.90;;;;;;5071219;28;20094;-62
2022/07/09 04:33:27;;;;;;;8.90;5.20;;;16.50;99.90;;;;;;5071298;28;20421;-63
2022/07/09 04:35:54;;;;;;;13.43;5.57;;;16.50;99.90;;;;;;5071228;28;20044;-64
2022/07/09 04:38:21;;;;;;;11.13;5.20;;;16.70;99.90;;;;;;5070794;28;20048;-61
2022/07/09 04:40:50;;;;;;;12.57;5.53;;;16.60;99.90;;;;;;5071099;28;20047;-62
2022/07/09 04:43:18;;;;;;;14.32;4.85;;;16.70;99.90;;;;;;5071223;28;20501;-62
2022/07/09 04:45:44;;;;;;;14.15;4.70;;;16.60;99.90;;;;;;5070964;28;20052;-63
2022/07/09 04:48:11;;;;;;;9.75;4.65;;;16.80;99.90;;;;;;5071047;28;20479;-62
2022/07/09 04:50:37;;;;;;;10.27;5.25;;;16.70;99.90;;;;;;5070941;28;20041;-64
2022/07/09 04:53:03;;;;;;;12.65;5.13;;;16.80;99.90;;;;;;5071266;28;20044;-64
2022/07/09 04:55:31;;;;;;;20.93;5.23;;;16.90;99.90;;;;;;5074171;28;20111;-63
2022/07/09 04:57:57;;;;;;;11.65;5.40;;;16.80;99.90;;;;;;5074654;28;20844;-64
2022/07/09 05:00:24;;;;;;;9.45;4.82;;;16.90;99.90;;;;;;5074686;28;20116;-64
2022/07/09 05:02:52;;;;;;;11.85;5.15;;;16.90;99.90;;;;;;5073121;28;20123;-63
2022/07/09 05:08:45;;;;;;;12.85;5.38;;;16.80;99.90;;;;;;5074570;28;20402;-63
2022/07/09 05:11:14;;;;;;;8.05;4.82;;;16.90;99.90;;;;;;5074487;28;20044;-63
2022/07/09 05:13:41;;;;;;;9.00;4.75;;;17.00;99.90;;;;;;5074971;28;20036;-64
2022/07/09 05:16:08;;;;;;;14.18;5.32;;;17.00;99.90;;;;;;5074519;28;20036;-62
2022/07/09 05:18:35;;;;;;;12.25;5.22;;;17.20;99.90;;;;;;5074419;28;20062;-63
2022/07/09 05:21:02;;;;;;;11.98;5.55;;;17.20;99.90;;;;;;5074329;28;20096;-63
2022/07/09 05:23:28;;;;;;;9.15;4.97;;;17.20;99.90;;;;;;5074589;28;20037;-63
2022/07/09 05:25:54;;;;;;;10.88;6.32;;;17.20;99.90;;;;;;5074070;28;20048;-63
2022/07/09 05:28:21;;;;;;;11.65;5.50;;;17.20;99.90;;;;;;5074068;28;20045;-63
2022/07/09 05:30:47;;;;;;;9.30;5.05;;;17.30;99.90;;;;;;5073337;28;20075;-64
2022/07/09 05:33:14;;;;;;;8.27;5.15;;;17.30;99.90;;;;;;5073294;28;20060;-63
2022/07/09 05:35:40;;;;;;;9.73;5.13;;;17.30;99.90;;;;;;5073910;28;20123;-63
2022/07/09 05:38:06;;;;;;;9.85;5.28;;;17.40;99.90;;;;;;5073917;28;20040;-63
2022/07/09 05:40:32;;;;;;;11.18;5.13;;;17.40;99.90;;;;;;5073737;28;20055;-64
2022/07/09 05:42:58;;;;;;;8.57;5.28;;;17.30;99.90;;;;;;5073896;28;20402;-63
2022/07/09 05:45:24;;;;;;;12.90;5.78;;;17.40;99.90;;;;;;5073719;28;20044;-64
2022/07/09 05:47:50;;;;;;;9.95;5.43;;;17.50;99.90;;;;;;5073836;28;20052;-63
2022/07/09 05:50:16;;;;;;;10.60;5.35;;;17.40;99.90;;;;;;5073811;28;20036;-63
2022/07/09 05:52:43;;;;;;;9.70;4.43;;;17.50;99.90;;;;;;5073747;28;20040;-63
2022/07/09 05:55:09;;;;;;;11.35;5.00;;;17.50;99.90;;;;;;5073744;28;20040;-63
2022/07/09 05:57:35;;;;;;;10.27;5.53;;;17.40;99.90;;;;;;5073814;28;20427;-64
2022/07/09 06:00:03;;;;;;;7.05;4.38;;;17.40;99.90;;;;;;5074028;28;20043;-63
2022/07/09 06:02:29;;;;;;;7.68;4.10;;;17.50;99.90;;;;;;5074043;28;20122;-62
2022/07/09 06:04:55;;;;;;;8.52;3.97;;;17.50;99.90;;;;;;5073471;28;20482;-62
2022/07/09 06:07:21;;;;;;;7.47;4.38;;;17.50;99.90;;;;;;5072844;28;20094;-63
2022/07/09 06:09:47;;;;;;;7.90;4.25;;;17.70;99.90;;;;;;5073292;28;20036;-63
2022/07/09 06:12:12;;;;;;;6.28;4.00;;;17.70;99.90;;;;;;5073551;28;20039;-63
2022/07/09 06:14:38;;;;;;;9.57;3.97;;;17.60;99.90;;;;;;5073376;28;20051;-63
2022/07/09 06:17:07;;;;;;;7.97;4.00;;;17.60;99.90;;;;;;5073304;28;20036;-63
2022/07/09 06:19:35;;;;;;;16.33;4.13;;;17.70;99.90;;;;;;5073094;28;20120;-63
2022/07/09 06:22:01;;;;;;;6.45;3.42;;;17.80;99.90;;;;;;5073186;28;20398;-64
2022/07/09 06:24:27;;;;;;;12.27;3.75;;;17.70;99.90;;;;;;5072989;28;20044;-63
2022/07/09 06:26:53;;;;;;;12.77;3.83;;;17.80;99.90;;;;;;5073193;28;20040;-63
2022/07/09 06:29:20;;;;;;;5.53;3.45;;;17.80;99.90;;;;;;5072768;28;20039;-63
2022/07/09 06:31:46;;;;;;;7.13;3.10;;;17.70;99.90;;;;;;5073105;28;20033;-62
2022/07/09 06:34:14;;;;;;;8.65;2.83;;;17.80;99.90;;;;;;5073024;28;20037;-63
2022/07/09 06:36:44;;;;;;;9.52;3.80;;;17.90;99.90;;;;;;5072727;28;20140;-63
2022/07/09 06:42:07;;;;;;;5.53;2.88;;;17.90;99.90;;;;;;5072741;28;20041;-62
2022/07/09 06:44:38;;;;;;;5.55;3.10;;;18.20;99.90;;;;;;5072539;28;20475;-61
2022/07/09 06:47:06;;;;;;;10.32;4.15;;;18.10;99.90;;;;;;5072597;28;20372;-63
2022/07/09 06:49:37;;;;;;;9.18;3.53;;;18.20;99.90;;;;;;5072548;28;20094;-62
2022/07/09 06:52:05;;;;;;;4.15;2.70;;;18.10;99.90;;;;;;5072645;28;20068;-62
2022/07/09 06:54:33;;;;;;;9.82;3.08;;;18.00;99.90;;;;;;5072315;28;20032;-63
2022/07/09 06:57:00;;;;;;;8.15;2.67;;;18.10;99.90;;;;;;5072418;28;20040;-63
2022/07/09 06:59:27;;;;;;;7.63;2.90;;;18.20;99.90;;;;;;5072198;28;20050;-63
2022/07/09 07:01:54;;;;;;;8.75;2.90;;;18.10;99.90;;;;;;5071391;28;20080;-63
2022/07/09 07:04:21;;;;;;;8.82;3.05;;;18.20;99.90;;;;;;5072168;28;20552;-63
2022/07/09 07:06:48;;;;;;;5.75;2.45;;;18.20;99.90;;;;;;5072390;28;20082;-63
2022/07/09 07:09:18;;;;;;;8.50;2.72;;;18.20;99.90;;;;;;5072026;28;20552;-63
2022/07/09 07:11:45;;;;;;;8.43;2.97;;;18.20;99.90;;;;;;5072357;28;20037;-64
2022/07/09 07:14:12;;;;;;;7.65;2.60;;;18.30;99.90;;;;;;5071705;28;20074;-63
2022/07/09 07:16:39;;;;;;;8.93;2.85;;;18.30;99.90;;;;;;5071792;28;20040;-63
2022/07/09 07:19:06;;;;;;;9.20;3.45;;;18.40;99.90;;;;;;5072382;28;20055;-63
2022/07/09 07:21:32;;;;;;;6.18;2.50;;;18.40;99.90;;;;;;5072150;28;20040;-63
2022/07/09 07:23:58;;;;;;;7.32;2.53;;;18.50;99.90;;;;;;5072029;28;20037;-62
2022/07/09 07:26:24;;;;;;;5.55;2.38;;;18.50;99.90;;;;;;5071770;28;20044;-62
2022/07/09 07:28:50;;;;;;;7.60;2.40;;;18.50;99.90;;;;;;5072393;28;20033;-62
2022/07/09 07:31:18;;;;;;;7.05;2.05;;;18.50;99.90;;;;;;5071767;28;20387;-62
2022/07/09 07:33:45;;;;;;;5.07;1.70;;;18.60;99.90;;;;;;5071792;28;20151;-62
2022/07/09 07:36:11;;;;;;;6.05;1.95;;;18.70;99.90;;;;;;5071566;28;20052;-61
2022/07/09 07:38:38;;;;;;;12.88;2.50;;;18.80;99.90;;;;;;5071424;28;20394;-62
2022/07/09 07:41:05;;;;;;;9.23;1.90;;;18.90;99.90;;;;;;5071758;28;20115;-62
2022/07/09 07:43:31;;;;;;;8.57;2.03;;;19.20;99.90;;;;;;5071765;28;20032;-63
2022/07/09 07:45:57;;;;;;;5.15;1.73;;;19.30;99.90;;;;;;5070728;28;20049;-63
2022/07/09 07:48:27;;;;;;;6.28;1.75;;;19.40;99.90;;;;;;5071685;28;20036;-62
2022/07/09 07:51:49;;;;;;;4.40;1.52;;;19.30;99.90;;;;;;5071711;28;20072;-63
2022/07/09 07:54:14;;;;;;;7.50;2.00;;;19.20;99.90;;;;;;5051791;28;20052;-63
2022/07/09 07:56:42;;;;;;;6.07;1.50;;;19.30;99.90;;;;;;5051552;28;20396;-63
2022/07/09 07:59:08;;;;;;;5.07;2.10;;;19.30;99.90;;;;;;5050301;28;20045;-63
2022/07/09 08:01:35;;;;;;;4.30;1.40;;;19.40;99.90;;;;;;5051705;28;20174;-63
2022/07/09 08:04:02;;;;;;;8.02;1.90;;;19.40;99.90;;;;;;5051265;28;20488;-63
2022/07/09 08:06:29;;;;;;;7.72;1.85;;;19.40;99.90;;;;;;5051343;28;20043;-61
2022/07/09 08:08:55;;;;;;;5.15;1.40;;;19.60;99.90;;;;;;5052934;28;20045;-61
2022/07/09 08:11:21;;;;;;;5.20;1.58;;;19.90;99.90;;;;;;5071350;28;20037;-60
2022/07/09 08:13:48;;;;;;;4.63;1.45;;;20.40;99.90;;;;;;5071340;28;20076;-60
2022/07/09 08:16:14;;;;;;;7.82;1.70;;;20.30;99.90;;;;;;5071319;28;20040;-60
2022/07/09 08:18:40;;;;;;;6.95;2.10;;;20.30;99.90;;;;;;5070390;28;20536;-60
2022/07/09 08:21:06;;;;;;;7.95;1.83;;;20.00;99.90;;;;;;5071355;28;20049;-61
2022/07/09 08:23:50;;;;;;;11.15;2.33;;;19.90;99.90;;;;;;5071567;28;20600;-61
2022/07/09 08:26:24;;;;;;;5.85;1.98;;;19.80;99.90;;;;;;5071376;28;20390;-61
2022/07/09 08:28:50;;;;;;;11.20;2.50;;;19.80;99.90;;;;;;5071226;28;20064;-61
2022/07/09 08:31:18;;;;;;;5.32;1.50;;;19.70;99.90;;;;;;5075202;28;20033;-61
2022/07/09 08:33:44;;;;;;;7.55;1.60;;;20.00;99.90;;;;;;5075161;28;20043;-61
2022/07/09 08:36:11;;;;;;;6.97;1.98;;;20.40;99.90;;;;;;5075095;28;20036;-61
2022/07/09 08:38:37;;;;;;;6.97;1.92;;;20.50;99.90;;;;;;5075038;28;20052;-60
2022/07/09 08:41:05;;;;;;;7.65;1.90;;;20.90;99.90;;;;;;5075394;28;20048;-61
2022/07/09 08:43:35;;;;;;;6.43;1.63;;;21.50;99.90;;;;;;5074869;28;20094;-61
2022/07/09 08:46:01;;;;;;;3.50;1.27;;;22.10;99.90;;;;;;5068177;28;20037;-60
2022/07/09 08:48:28;;;;;;;4.72;1.38;;;22.20;99.90;;;;;;5053757;28;20039;-60
2022/07/09 08:50:57;;;;;;;7.80;1.95;;;22.40;99.90;;;;;;5070209;28;20037;-59
2022/07/09 08:53:27;;;;;;;3.33;1.27;;;22.50;99.90;;;;;;5054979;28;20452;-61
2022/07/09 08:55:54;;;;;;;5.13;1.88;;;22.20;99.90;;;;;;5054909;28;20106;-60
2022/07/09 08:58:20;;;;;;;4.43;1.60;;;23.00;99.90;;;;;;5054721;28;20402;-60
2022/07/09 09:00:49;;;;;;;2.88;1.05;;;23.40;99.90;;;;;;5054602;28;20043;-60
2022/07/09 09:03:15;;;;;;;7.40;1.40;;;23.50;99.90;;;;;;5054634;28;20491;-60
2022/07/09 09:05:41;;;;;;;6.90;1.50;;;22.80;99.90;;;;;;5054633;28;20077;-59
2022/07/09 09:08:22;;;;;;;4.60;1.70;;;22.40;99.90;;;;;;5053487;28;20044;-61
2022/07/09 09:10:48;;;;;;;5.97;1.80;;;21.60;99.90;;;;;;5054666;28;20093;-60
2022/07/09 09:13:16;;;;;;;5.35;1.20;;;21.80;99.90;;;;;;5054734;28;20566;-60
2022/07/09 09:15:44;;;;;;;5.25;1.30;;;22.20;99.90;;;;;;5054454;28;20407;-61
2022/07/09 09:18:11;;;;;;;4.82;1.50;;;22.70;99.90;;;;;;5053276;28;20053;-61
2022/07/09 09:20:38;;;;;;;4.13;1.60;;;23.10;99.90;;;;;;5054425;28;20099;-61
2022/07/09 09:23:10;;;;;;;4.80;1.38;;;23.10;99.90;;;;;;5054372;28;20045;-60
2022/07/09 09:25:37;;;;;;;2.60;1.05;;;22.70;99.90;;;;;;5054164;28;20438;-61
2022/07/09 09:28:03;;;;;;;7.72;1.38;;;23.20;99.90;;;;;;5052707;28;20060;-61
2022/07/09 09:30:31;;;;;;;4.95;1.85;;;23.60;99.90;;;;;;5054009;28;20037;-60
2022/07/09 09:33:18;;;;;;;7.80;1.98;;;23.40;99.90;;;;;;5054061;28;20094;-61
2022/07/09 09:35:45;;;;;;;8.27;1.70;;;23.10;99.90;;;;;;5054034;28;20102;-62
2022/07/09 09:38:12;;;;;;;7.25;1.75;;;22.70;99.90;;;;;;5053877;28;20110;-61
2022/07/09 09:40:39;;;;;;;7.60;2.45;;;22.40;99.90;;;;;;5053726;28;20114;-60
2022/07/09 09:43:08;;;;;;;5.32;1.33;;;22.00;99.90;;;;;;5054097;28;20084;-60
2022/07/09 09:45:36;;;;;;;7.25;1.73;;;22.10;99.90;;;;;;5053966;28;20119;-61
2022/07/09 09:48:06;;;;;;;7.43;1.73;;;22.30;99.90;;;;;;5053817;28;20041;-62
2022/07/09 09:50:33;;;;;;;7.88;1.30;;;22.20;99.90;;;;;;5053734;28;20045;-61
2022/07/09 09:53:01;;;;;;;4.93;1.52;;;22.20;99.90;;;;;;5053669;28;20479;-61
2022/07/09 09:55:26;;;;;;;6.57;1.40;;;22.20;99.90;;;;;;5053599;28;20376;-60
2022/07/09 09:57:53;;;;;;;7.70;1.85;;;23.20;99.90;;;;;;5053605;28;20068;-61
2022/07/09 10:00:20;;;;;;;4.93;1.20;;;22.80;99.90;;;;;;5069078;28;20053;-61
2022/07/09 10:02:47;;;;;;;5.57;1.40;;;22.80;99.90;;;;;;5053489;28;20040;-61
2022/07/09 10:05:14;;;;;;;5.30;1.40;;;23.10;99.90;;;;;;5053359;28;20135;-60
2022/07/09 10:07:42;;;;;;;36.47;12.25;;;23.20;99.90;;;;;;5051869;28;20438;-61
2022/07/09 10:10:16;;;;;;;48.92;15.10;;;22.90;99.90;;;;;;5053431;28;20523;-60
2022/07/09 10:12:44;;;;;;;14.15;4.05;;;23.40;99.90;;;;;;5053380;28;20123;-61
2022/07/09 10:15:26;;;;;;;11.05;3.90;;;23.90;99.90;;;;;;5053309;28;20041;-61
2022/07/09 10:17:53;;;;;;;14.77;5.28;;;23.60;99.90;;;;;;5053078;28;20099;-60
2022/07/09 10:20:33;;;;;;;10.02;2.33;;;24.30;99.90;;;;;;5067885;28;20036;-61
2022/07/09 10:23:00;;;;;;;;;;;23.60;99.90;;;;;;5073570;28;20094;-62
2022/07/09 10:25:42;;;;;;;27.33;7.93;;;22.50;99.90;;;;;;5072940;28;19924;-62
2022/07/09 10:28:17;;;;;;;39.20;11.48;;;22.10;99.90;;;;;;5073111;28;20660;-63
2022/07/09 10:30:44;;;;;;;20.83;5.88;;;21.40;99.90;;;;;;5073136;28;20040;-62
2022/07/09 10:33:13;;;;;;;11.98;3.67;;;21.00;99.90;;;;;;5072921;28;20041;-64
2022/07/09 10:35:51;;;;;;;19.85;5.30;;;20.40;99.90;;;;;;5072981;28;20394;-63
2022/07/09 10:38:18;;;;;;;28.55;9.05;;;20.40;99.90;;;;;;5071623;28;20392;-63
2022/07/09 10:40:57;;;;;;;18.60;5.13;;;20.20;99.90;;;;;;5072935;28;20655;-63
2022/07/09 10:43:40;;;;;;;21.15;6.10;;;20.30;99.90;;;;;;5072666;28;20509;-64
2022/07/09 10:46:14;;;;;;;21.15;5.53;;;20.30;99.90;;;;;;5072438;28;20503;-64
2022/07/09 10:48:42;;;;;;;14.82;3.90;;;20.20;99.90;;;;;;5072504;28;20382;-63
2022/07/09 10:51:19;;;;;;;8.65;2.08;;;20.40;99.90;;;;;;5072451;28;20036;-63
2022/07/09 10:53:46;;;;;;;15.05;3.92;;;20.20;99.90;;;;;;5072324;28;20041;-62
2022/07/09 10:56:20;;;;;;;14.13;3.17;;;20.20;99.90;;;;;;5072607;28;20041;-63
2022/07/09 10:58:48;;;;;;;10.07;3.28;;;20.30;99.90;;;;;;5072545;28;20055;-63
2022/07/09 11:01:27;;;;;;;11.88;3.33;;;20.50;99.90;;;;;;5072732;28;20079;-62
2022/07/09 11:03:55;;;;;;;12.97;3.07;;;20.60;99.90;;;;;;5072592;28;20044;-63
2022/07/09 11:06:21;;;;;;;10.30;3.13;;;20.70;99.90;;;;;;5072431;28;20044;-63
2022/07/09 11:08:47;;;;;;;11.15;2.95;;;20.80;99.90;;;;;;5072376;28;20387;-63
2022/07/09 11:11:23;;;;;;;9.55;2.10;;;21.00;99.90;;;;;;5072082;28;20040;-64
2022/07/09 11:13:51;;;;;;;4.88;1.83;;;21.00;99.90;;;;;;5072086;28;20040;-63
2022/07/09 11:16:26;;;;;;;7.65;2.25;;;21.30;99.90;;;;;;5071901;28;20125;-63
2022/07/09 11:18:54;;;;;;;9.57;2.47;;;21.40;99.90;;;;;;5072456;28;20109;-63
2022/07/09 11:21:25;;;;;;;10.30;2.20;;;21.50;99.90;;;;;;5072369;28;20147;-63
2022/07/09 11:23:52;;;;;;;7.30;2.38;;;21.60;99.90;;;;;;5071715;28;20350;-63
2022/07/09 11:26:18;;;;;;;7.10;1.58;;;21.60;99.90;;;;;;5071950;28;20486;-63
2022/07/09 11:28:47;;;;;;;8.25;1.77;;;21.60;99.90;;;;;;5071982;28;20395;-63
2022/07/09 11:31:14;;;;;;;6.40;1.55;;;21.80;99.90;;;;;;5072062;28;20124;-63
2022/07/09 11:34:12;;;;;;;7.93;1.73;;;22.00;99.90;;;;;;5072145;28;20036;-62
2022/07/09 11:36:40;;;;;;;5.93;1.30;;;22.30;99.90;;;;;;5071910;28;20036;-63
2022/07/09 11:39:08;;;;;;;7.05;1.42;;;22.50;99.90;;;;;;5071637;28;20091;-63
2022/07/09 11:41:45;;;;;;;6.45;1.30;;;22.80;99.90;;;;;;5071795;28;20041;-63
2022/07/09 11:44:19;;;;;;;5.20;1.00;;;23.80;99.90;;;;;;5071631;28;20056;-64
2022/07/09 11:46:46;;;;;;;6.82;1.35;;;24.10;99.90;;;;;;5071821;28;20421;-64
2022/07/09 11:49:16;;;;;;;4.15;1.30;;;24.70;99.90;;;;;;5071743;28;20094;-63
2022/07/09 11:51:43;;;;;;;3.25;1.30;;;24.20;99.90;;;;;;5071501;28;20517;-61
2022/07/09 11:57:56;;;;;;;3.42;1.42;;;24.60;99.90;;;;;;5071554;28;20039;-64
2022/07/09 12:00:27;;;;;;;7.32;1.80;;;24.80;99.90;;;;;;5071510;28;20040;-64
2022/07/09 12:02:55;;;;;;;3.05;1.02;;;24.80;99.90;;;;;;5071238;28;20036;-63
2022/07/09 12:05:27;;;;;;;3.67;1.17;;;25.00;99.90;;;;;;5070500;28;20391;-64
2022/07/09 12:07:54;;;;;;;3.40;1.02;;;25.40;99.90;;;;;;5071833;28;20040;-64
2022/07/09 12:10:38;;;;;;;6.07;1.20;;;25.80;99.90;;;;;;5071917;28;20147;-64
2022/07/09 12:13:06;;;;;;;5.10;1.00;;;25.50;99.90;;;;;;5071337;28;20089;-64
2022/07/09 12:15:32;;;;;;;5.07;1.08;;;25.70;99.90;;;;;;5049803;28;20087;-64
2022/07/09 12:18:00;;;;;;;5.45;1.45;;;24.70;99.90;;;;;;5071335;28;20484;-64
2022/07/09 12:20:28;;;;;;;5.05;1.25;;;24.90;99.90;;;;;;5070218;28;20044;-64
2022/07/09 12:22:57;;;;;;;4.85;1.08;;;24.70;99.90;;;;;;5071468;28;20123;-64
2022/07/09 12:25:24;;;;;;;5.35;1.05;;;24.60;99.90;;;;;;5070632;28;20048;-65
2022/07/09 12:27:51;;;;;;;6.50;1.48;;;25.00;99.90;;;;;;5071455;28;20075;-64
2022/07/09 12:30:19;;;;;;;7.32;1.95;;;25.10;99.90;;;;;;5071763;28;20462;-64
2022/07/09 12:32:45;;;;;;;3.97;1.67;;;24.90;99.90;;;;;;5071526;28;20047;-64
2022/07/09 12:35:12;;;;;;;5.85;1.40;;;25.00;99.90;;;;;;5071335;28;20125;-63
2022/07/09 12:37:39;;;;;;;4.78;1.10;;;24.80;99.90;;;;;;5071392;28;20804;-64
2022/07/09 12:40:07;;;;;;;8.95;1.35;;;24.80;99.90;;;;;;5071160;28;20672;-64
2022/07/09 12:42:34;;;;;;;4.75;1.13;;;24.70;99.90;;;;;;5071326;28;20048;-64
2022/07/09 12:45:02;;;;;;;5.90;1.38;;;24.70;99.90;;;;;;5071239;28;20127;-64
2022/07/09 12:47:29;;;;;;;7.10;1.63;;;24.40;99.90;;;;;;5071279;28;20372;-62
2022/07/09 12:49:56;;;;;;;6.60;1.63;;;24.20;99.90;;;;;;5070937;28;20043;-63
2022/07/09 12:52:23;;;;;;;5.57;1.27;;;24.30;99.90;;;;;;5071353;28;20472;-64
2022/07/09 12:54:52;;;;;;;3.50;1.50;;;24.30;99.90;;;;;;5070894;28;20072;-64
2022/07/09 12:57:18;;;;;;;5.80;1.50;;;24.00;99.90;;;;;;5068047;28;20032;-65
2022/07/09 12:59:45;;;;;;;7.97;1.50;;;24.00;99.90;;;;;;5066614;28;20475;-65